Time;durP1;ratioP1;P1;durP2;ratioP2;P2;SDS_P1;SDS_P2;PMS_P1;PMS_P2;Temp;Humidity;BMP_temperature;BMP_pressure;BME280_temperature;BME280_humidity;BME280_pressure;Samples;Min_cycle;Max_cycle;Signal;HPM_P1;HPM_P2
2022/04/16 00:01:42;;;;;;;3.28;1.58;;;;;;;14.35;53.79;100763.75;18432795;32;20096;-66
2022/04/16 00:11:45;;;;;;;4.50;1.67;;;;;;;13.77;55.62;100766.97;18433386;32;20069;-66
2022/04/16 00:21:50;;;;;;;4.20;1.85;;;;;;;13.22;57.00;100757.81;18432115;32;20115;-66
2022/04/16 00:31:53;;;;;;;6.18;2.17;;;;;;;13.33;56.35;100755.97;18417373;32;20119;-66
2022/04/16 00:41:58;;;;;;;6.95;2.85;;;;;;;13.10;57.07;100759.66;18431395;32;20122;-66
2022/04/16 00:52:02;;;;;;;5.70;2.42;;;;;;;12.70;58.03;100752.00;18430834;32;20443;-66
2022/04/16 01:02:09;;;;;;;6.53;3.05;;;;;;;12.89;57.73;100744.91;18430095;32;20387;-66
2022/04/16 01:12:13;;;;;;;6.87;2.58;;;;;;;13.08;56.97;100740.41;18429763;32;20135;-67
2022/04/16 01:22:20;;;;;;;7.10;3.42;;;;;;;13.12;56.72;100743.88;18430323;32;20092;-67
2022/04/16 01:32:25;;;;;;;8.45;3.65;;;;;;;12.92;57.38;100750.13;18430590;32;20339;-66
2022/04/16 01:42:29;;;;;;;7.12;3.47;;;;;;;13.17;56.23;100735.09;18436773;32;20101;-66
2022/04/16 01:52:36;;;;;;;8.35;3.83;;;;;;;12.72;57.55;100739.78;18436132;32;20112;-66
2022/04/16 02:02:39;;;;;;;7.85;3.33;;;;;;;12.14;59.30;100758.34;18436102;32;20088;-67
2022/04/16 02:12:44;;;;;;;12.73;4.55;;;;;;;11.83;60.23;100741.81;18436602;32;20130;-66
2022/04/16 02:22:48;;;;;;;11.27;4.62;;;;;;;11.66;61.54;100740.09;18435327;32;20485;-66
2022/04/16 02:32:53;;;;;;;10.00;4.95;;;;;;;11.69;61.16;100736.62;18435325;32;20119;-66
2022/04/16 02:42:56;;;;;;;10.20;4.62;;;;;;;11.91;60.77;100716.53;18433693;32;20092;-66
2022/04/16 02:53:02;;;;;;;12.45;5.03;;;;;;;12.21;59.63;100694.66;18435458;32;20511;-66
2022/04/16 03:03:05;;;;;;;10.95;4.85;;;;;;;12.07;59.73;100689.47;18392026;32;20105;-66
2022/04/16 03:13:10;;;;;;;10.60;4.82;;;;;;;12.15;58.90;100678.13;18434215;32;20112;-66
2022/04/16 03:23:13;;;;;;;11.18;4.35;;;;;;;12.14;58.73;100674.59;18433728;32;20093;-66
2022/04/16 03:33:18;;;;;;;11.75;4.47;;;;;;;12.20;58.39;100674.59;18433297;32;20112;-66
2022/04/16 03:43:25;;;;;;;6.78;3.17;;;;;;;12.31;57.17;100692.84;18434384;32;20158;-66
2022/04/16 03:53:31;;;;;;;12.52;4.97;;;;;;;11.96;57.01;100701.69;18432497;32;20089;-66
2022/04/16 04:03:36;;;;;;;8.65;3.62;;;;;;;12.00;57.34;100711.25;18419429;32;20361;-66
2022/04/16 04:13:41;;;;;;;8.02;3.55;;;;;;;12.16;57.13;100724.34;18432665;32;20141;-66
2022/04/16 04:23:44;;;;;;;7.87;3.62;;;;;;;12.05;56.94;100729.59;18429753;32;20487;-67
2022/04/16 04:33:49;;;;;;;8.02;3.55;;;;;;;12.24;56.52;100738.28;18416886;32;20089;-67
2022/04/16 04:43:52;;;;;;;8.50;3.45;;;;;;;12.21;56.64;100744.38;18430298;32;20386;-67
2022/04/16 04:53:56;;;;;;;7.95;2.90;;;;;;;12.40;56.10;100739.06;18394255;32;20101;-67
2022/04/16 05:04:00;;;;;;;7.53;3.00;;;;;;;12.54;55.83;100762.56;18429042;32;20098;-66
2022/04/16 05:14:04;;;;;;;7.45;3.10;;;;;;;13.26;53.40;100770.88;18428260;32;20124;-66
2022/04/16 05:24:08;;;;;;;6.32;2.95;;;;;;;13.37;51.73;100768.16;18427143;32;20139;-67
2022/04/16 05:34:22;;;;;;;7.32;2.40;;;;;;;13.68;49.92;100778.44;18427461;32;20118;-67
2022/04/16 05:44:25;;;;;;;6.70;2.80;;;;;;;13.29;50.32;100801.47;18428073;32;20089;-66
2022/04/16 05:54:30;;;;;;;9.25;2.60;;;;;;;13.70;49.83;100807.25;18356699;32;20696;-67
2022/04/16 06:04:33;;;;;;;7.03;2.97;;;;;;;13.94;49.26;100818.44;18297881;32;20101;-67
2022/04/16 06:14:38;;;;;;;5.25;2.45;;;;;;;14.16;48.54;100826.97;18297142;32;20118;-66
2022/04/16 06:24:41;;;;;;;8.07;2.92;;;;;;;14.42;48.25;100817.94;18305413;32;20121;-68
2022/04/16 06:34:46;;;;;;;4.25;2.00;;;;;;;15.49;45.55;100819.13;18305075;32;20099;-66
2022/04/16 06:44:49;;;;;;;5.72;2.20;;;;;;;15.90;44.10;100837.78;18301953;32;20093;-67
2022/04/16 06:54:54;;;;;;;7.53;2.60;;;;;;;15.98;42.93;100836.81;18340626;32;20109;-66
2022/04/16 07:04:58;;;;;;;4.80;2.08;;;;;;;15.62;43.63;100856.66;18433146;32;20453;-67
2022/04/16 07:15:02;;;;;;;5.32;2.28;;;;;;;15.78;44.72;100851.16;18430754;32;20132;-67
2022/04/16 07:25:06;;;;;;;5.72;2.70;;;;;;;15.42;46.53;100856.09;18432449;32;20132;-67
2022/04/16 07:35:11;;;;;;;3.90;2.03;;;;;;;15.63;44.96;100865.44;18431647;32;20077;-67
2022/04/16 07:45:14;;;;;;;3.97;1.62;;;;;;;17.71;44.09;100876.28;18429452;32;73945;-67
2022/04/16 07:55:20;;;;;;;3.33;1.75;;;;;;;18.37;38.93;100875.53;18431737;32;20116;-67
2022/04/16 08:05:23;;;;;;;4.18;2.05;;;;;;;17.12;39.84;100878.53;18432510;32;20093;-67
2022/04/16 08:15:32;;;;;;;4.00;1.83;;;;;;;16.56;42.42;100886.66;18428297;32;20111;-67
2022/04/16 08:25:45;;;;;;;4.55;1.83;;;;;;;16.59;42.51;100878.69;18431185;32;20140;-67
2022/04/16 08:35:49;;;;;;;4.82;1.83;;;;;;;17.39;39.21;100855.03;18429821;32;20096;-67
2022/04/16 08:45:54;;;;;;;3.53;2.03;;;;;;;18.24;37.45;100864.44;18429689;32;20190;-67
2022/04/16 08:55:59;;;;;;;4.07;1.55;;;;;;;18.66;36.71;100885.28;18414926;32;20090;-67
2022/04/16 09:06:02;;;;;;;4.05;1.62;;;;;;;18.36;37.05;100877.31;18429036;32;20089;-67
2022/04/16 09:16:07;;;;;;;4.35;1.70;;;;;;;17.68;38.59;100890.44;18415335;32;20104;-67
2022/04/16 09:26:10;;;;;;;2.95;1.37;;;;;;;17.56;38.71;100891.59;18428811;32;20105;-66
2022/04/16 09:36:24;;;;;;;3.05;1.45;;;;;;;17.92;37.15;100887.22;18426696;32;20093;-64
2022/04/16 09:46:28;;;;;;;2.75;1.20;;;;;;;20.42;35.17;100876.28;18425141;32;20101;-64
2022/04/16 09:56:35;;;;;;;1.98;1.05;;;;;;;20.31;34.40;100874.00;18426991;32;20105;-64
2022/04/16 10:06:38;;;;;;;2.37;1.33;;;;;;;19.05;36.46;100885.97;18405895;32;20088;-64
2022/04/16 10:16:52;;;;;;;2.75;1.33;;;;;;;17.91;40.26;100889.00;18436784;32;20449;-64
2022/04/16 10:27:04;;;;;;;2.08;1.25;;;;;;;17.59;39.18;100891.53;18435738;32;20146;-64
2022/04/16 10:37:09;;;;;;;2.95;1.50;;;;;;;16.98;47.76;100897.25;18420009;32;20108;-64
2022/04/16 10:47:14;;;;;;;3.10;1.45;;;;;;;16.71;47.99;100894.28;18431083;32;20116;-64
2022/04/16 10:57:23;;;;;;;2.37;1.42;;;;;;;16.54;49.54;100883.19;18433305;32;20097;-64
2022/04/16 11:07:27;;;;;;;2.92;1.00;;;;;;;16.76;49.53;100888.91;18432876;32;20089;-64
2022/04/16 11:17:32;;;;;;;6.47;2.03;;;;;;;17.16;45.50;100877.53;18419181;32;20378;-64
2022/04/16 11:37:57;;;;;;;1.40;1.10;;;;;;;16.59;44.83;100878.69;18433082;32;20342;-64
2022/04/16 11:48:00;;;;;;;3.83;1.27;;;;;;;16.71;44.01;100865.28;18418551;32;20128;-64
2022/04/16 11:58:08;;;;;;;1.20;0.82;;;;;;;16.96;42.92;100859.47;18431918;32;20714;-65
2022/04/16 12:08:12;;;;;;;2.00;1.10;;;;;;;17.27;39.65;100853.56;18432472;32;20085;-65
2022/04/16 12:18:19;;;;;;;1.85;1.00;;;;;;;17.34;38.08;100846.38;18430397;32;20105;-64
2022/04/16 12:28:22;;;;;;;2.35;0.80;;;;;;;17.55;37.81;100838.84;18431391;32;20428;-65
2022/04/16 12:38:27;;;;;;;1.00;0.80;;;;;;;17.25;37.20;100826.34;18431255;32;20429;-64
2022/04/16 12:48:30;;;;;;;2.58;0.93;;;;;;;16.45;38.29;100837.69;18428843;32;20115;-65
2022/04/16 12:58:35;;;;;;;1.95;0.90;;;;;;;16.43;39.02;100842.12;18412328;32;20164;-65
2022/04/16 13:08:38;;;;;;;2.53;1.00;;;;;;;16.02;38.79;100847.25;18418481;32;20096;-64
2022/04/16 13:18:42;;;;;;;2.90;1.52;;;;;;;15.95;40.23;100854.41;18429918;32;20127;-65
2022/04/16 13:28:46;;;;;;;1.90;0.90;;;;;;;15.90;40.12;100844.81;18416756;32;20189;-64
2022/04/16 13:38:50;;;;;;;8.32;2.40;;;;;;;15.99;42.13;100856.97;18434133;32;20116;-64
2022/04/16 13:48:53;;;;;;;4.18;1.15;;;;;;;15.78;45.50;100878.31;18434669;32;20123;-65
2022/04/16 13:59:03;;;;;;;6.45;2.20;;;;;;;14.96;52.64;100903.16;18433120;32;20467;-65
2022/04/16 14:09:06;;;;;;;4.00;1.77;;;;;;;12.23;67.95;100930.19;18419433;32;20124;-64
2022/04/16 14:19:11;;;;;;;5.10;1.85;;;;;;;12.23;69.05;100948.50;18434526;32;20109;-64
2022/04/16 14:29:20;;;;;;;4.40;1.75;;;;;;;12.79;66.96;100958.91;18417432;32;20488;-64
2022/04/16 14:39:24;;;;;;;2.62;1.35;;;;;;;12.96;66.77;100977.22;18430415;32;20363;-64
2022/04/16 14:49:28;;;;;;;3.95;1.40;;;;;;;13.36;65.75;100975.34;18418128;32;20099;-64
2022/04/16 14:59:32;;;;;;;4.80;1.75;;;;;;;13.38;65.46;100979.72;18433918;32;20112;-64
2022/04/16 15:09:36;;;;;;;2.15;1.50;;;;;;;13.53;64.39;100977.91;18418713;32;20327;-64
2022/04/16 15:19:40;;;;;;;3.67;1.90;;;;;;;13.67;61.29;100986.59;18413186;32;20601;-65
2022/04/16 15:29:43;;;;;;;14.25;5.47;;;;;;;13.62;63.92;100990.13;18427768;32;20111;-64
2022/04/16 15:39:48;;;;;;;2.58;1.30;;;;;;;13.65;63.45;100984.84;18379966;32;20415;-64
2022/04/16 15:49:51;;;;;;;9.23;4.32;;;;;;;13.86;59.13;100986.47;18418670;32;20111;-64
2022/04/16 15:59:56;;;;;;;6.28;2.95;;;;;;;13.80;61.89;101002.25;18412885;32;20101;-64
2022/04/16 16:09:59;;;;;;;5.35;1.60;;;;;;;14.11;60.85;101005.53;18430302;32;20438;-64
2022/04/16 16:20:04;;;;;;;4.62;1.70;;;;;;;14.37;59.06;101014.09;18432090;32;20093;-64
2022/04/16 16:30:09;;;;;;;5.37;1.77;;;;;;;14.17;59.92;101028.25;18431261;32;20115;-64
2022/04/16 16:40:13;;;;;;;5.00;2.28;;;;;;;14.29;59.66;101037.81;18415718;32;20179;-64
2022/04/16 16:50:17;;;;;;;5.95;2.20;;;;;;;14.08;61.85;101057.19;18413158;32;20100;-64
2022/04/16 17:00:22;;;;;;;4.00;1.75;;;;;;;14.21;61.08;101077.22;18428358;32;20107;-64
2022/04/16 17:10:25;;;;;;;2.20;1.02;;;;;;;13.65;57.89;101102.91;18415167;32;20105;-66
2022/04/16 17:20:30;;;;;;;1.95;1.10;;;;;;;12.80;46.85;101114.38;18415519;32;20101;-66
2022/04/16 17:30:34;;;;;;;1.45;0.95;;;;;;;12.05;47.46;101149.16;18428779;32;20107;-66
2022/04/16 17:40:38;;;;;;;3.55;1.33;;;;;;;12.60;47.69;101172.87;18413137;32;20089;-66
2022/04/16 17:50:43;;;;;;;3.05;1.83;;;;;;;11.94;45.29;101192.66;18428304;32;20101;-66
2022/04/16 18:00:47;;;;;;;4.65;1.98;;;;;;;11.71;47.25;101227.44;18428330;32;20088;-66
2022/04/16 18:10:50;;;;;;;3.70;1.90;;;;;;;11.58;46.55;101246.53;18412439;32;20081;-66
2022/04/16 18:20:56;;;;;;;4.15;2.12;;;;;;;11.83;45.94;101272.84;18420602;32;20123;-66
2022/04/16 18:30:59;;;;;;;3.80;1.70;;;;;;;10.98;47.06;101301.75;18420151;32;20441;-66
2022/04/16 18:41:04;;;;;;;3.47;1.75;;;;;;;10.54;49.27;101320.41;18407629;32;20430;-66
2022/04/16 18:51:07;;;;;;;4.87;2.20;;;;;;;10.58;49.13;101344.81;18435259;32;20093;-66
2022/04/16 19:11:33;;;;;;;6.90;2.15;;;;;;;11.05;51.57;101356.72;18415377;32;20101;-66
2022/04/16 19:21:58;;;;;;;4.62;2.20;;;;;;;11.09;49.21;101368.06;18419498;32;20101;-66
2022/04/16 19:32:01;;;;;;;3.40;1.67;;;;;;;11.44;44.04;101377.16;18417072;32;20618;-66
2022/04/16 19:42:07;;;;;;;5.45;1.52;;;;;;;11.48;44.95;101397.22;18417068;32;20351;-66
2022/04/16 19:52:10;;;;;;;3.95;1.75;;;;;;;11.19;42.59;101411.75;18428903;32;20093;-66
2022/04/16 20:02:14;;;;;;;3.42;1.50;;;;;;;11.15;42.11;101412.56;18430139;32;20105;-66
2022/04/16 20:12:18;;;;;;;3.83;2.03;;;;;;;11.24;40.51;101427.50;18417186;32;20136;-66
2022/04/16 20:22:22;;;;;;;3.55;1.85;;;;;;;11.26;41.18;101438.84;18431523;32;20085;-66
2022/04/16 20:32:25;;;;;;;2.47;1.30;;;;;;;11.34;42.93;101441.53;18417083;32;20092;-66
2022/04/16 21:03:17;;;;;;;2.15;1.50;;;;;;;10.69;39.35;101450.28;18430201;32;20100;-66
2022/04/16 21:13:20;;;;;;;3.10;1.05;;;;;;;10.51;39.12;101453.53;18429292;32;20389;-66
2022/04/16 21:23:25;;;;;;;2.35;1.40;;;;;;;10.59;38.45;101456.25;18414923;32;20109;-68
2022/04/16 21:33:28;;;;;;;4.30;1.30;;;;;;;10.66;37.82;101454.59;18414241;32;20136;-66
2022/04/16 21:43:33;;;;;;;5.00;1.58;;;;;;;10.94;39.12;101463.69;18428133;32;20120;-66
2022/04/16 21:53:37;;;;;;;1.35;1.10;;;;;;;10.97;39.11;101465.47;18417206;32;20116;-66
2022/04/16 22:03:44;;;;;;;2.92;1.60;;;;;;;11.00;37.33;101475.06;18434532;32;20085;-66
2022/04/16 22:13:47;;;;;;;3.92;1.40;;;;;;;10.39;36.44;101480.28;18434223;32;20436;-66
2022/04/16 22:23:51;;;;;;;1.73;1.12;;;;;;;10.28;36.76;101492.28;18418766;32;20138;-66
2022/04/16 22:33:56;;;;;;;4.93;1.70;;;;;;;10.81;38.31;101504.44;18419567;32;20123;-66
2022/04/16 22:44:03;;;;;;;2.17;1.23;;;;;;;10.08;37.30;101498.03;18433694;32;20085;-66
2022/04/16 22:54:06;;;;;;;4.03;1.67;;;;;;;10.49;37.01;101502.22;18418555;32;20089;-67
2022/04/16 23:04:10;;;;;;;3.67;1.90;;;;;;;10.20;37.27;101507.81;18431943;32;20734;-66
2022/04/16 23:14:13;;;;;;;3.22;1.40;;;;;;;9.84;36.96;101504.56;18419467;32;20183;-66
2022/04/16 23:24:18;;;;;;;2.70;1.42;;;;;;;9.36;38.18;101507.97;18432349;32;20097;-66
2022/04/16 23:34:21;;;;;;;2.53;1.30;;;;;;;9.33;38.28;101502.69;18433320;32;20111;-66
2022/04/16 23:54:47;;;;;;;2.45;1.50;;;;;;;8.82;36.49;101510.28;18431418;32;20347;-65
